Bulimba Airport


Codes: YBWM/BIP
Name: Bulimba Airport
City:
Country: Australia
Elevation: 470 ft.

Photos at Bulimba Airport


   Photos courtesy of SpottingLog. You can add your own sightings and photos by signing up for a free trial today.



No photos found.

Weather at Bulimba Airport


Time (UTC)DescriptionTempratureWindCloud coverageVisibilityPressureHumidity
23-May-2024 21:00Clear Sky19°C9 mph, SE1%10000m1015hPa80%
24-May-2024 00:00Clear Sky22°C20 mph, E5%10000m1015hPa71%
24-May-2024 03:00Clear Sky27°C13 mph, E5%10000m1014hPa52%
24-May-2024 06:00Clear Sky31°C16 mph, E5%10000m1011hPa39%
24-May-2024 09:00Few Clouds25°C16 mph, E12%10000m1014hPa54%
24-May-2024 12:00Few Clouds23°C16 mph, E14%10000m1016hPa63%
24-May-2024 15:00Few Clouds21°C13 mph, E16%10000m1016hPa66%
24-May-2024 18:00Clear Sky20°C11 mph, SE8%10000m1015hPa71%
24-May-2024 21:00Clear Sky19°C11 mph, SE2%10000m1016hPa76%
25-May-2024 00:00Clear Sky26°C16 mph, E1%10000m1016hPa53%
25-May-2024 03:00Clear Sky31°C9 mph, SE0%10000m1014hPa38%
25-May-2024 06:00Clear Sky32°C7 mph, SE0%10000m1011hPa35%
25-May-2024 09:00Broken Clouds27°C16 mph, E55%10000m1014hPa53%
25-May-2024 12:00Broken Clouds25°C13 mph, E66%10000m1016hPa59%
25-May-2024 15:00Broken Clouds22°C11 mph, E74%10000m1015hPa66%
25-May-2024 18:00Scattered Clouds20°C9 mph, E40%10000m1015hPa77%
25-May-2024 21:00Clear Sky20°C9 mph, SE1%10000m1016hPa81%
26-May-2024 00:00Scattered Clouds26°C16 mph, E25%10000m1017hPa54%
26-May-2024 03:00Few Clouds31°C13 mph, E15%10000m1014hPa40%
26-May-2024 06:00Few Clouds30°C16 mph, E19%10000m1012hPa42%
26-May-2024 09:00Broken Clouds26°C16 mph, E73%10000m1014hPa55%
26-May-2024 12:00Broken Clouds24°C13 mph, E65%10000m1016hPa62%
26-May-2024 15:00Broken Clouds21°C9 mph, E73%10000m1015hPa72%
26-May-2024 18:00Broken Clouds20°C9 mph, SE70%10000m1014hPa78%
26-May-2024 21:00Broken Clouds22°C11 mph, SE70%10000m1016hPa75%
27-May-2024 00:00Broken Clouds27°C16 mph, E63%10000m1016hPa54%
27-May-2024 03:00Scattered Clouds31°C16 mph, E50%10000m1013hPa42%
27-May-2024 06:00Broken Clouds29°C16 mph, E74%10000m1012hPa47%
27-May-2024 09:00Overcast Clouds26°C13 mph, E96%10000m1014hPa53%
27-May-2024 12:00Overcast Clouds23°C16 mph, E99%10000m1015hPa63%
27-May-2024 15:00Overcast Clouds22°C13 mph, E88%10000m1014hPa69%
27-May-2024 18:00Broken Clouds21°C11 mph, E80%10000m1014hPa71%
27-May-2024 21:00Overcast Clouds19°C9 mph, SE100%10000m1015hPa69%
28-May-2024 00:00Overcast Clouds26°C16 mph, E100%10000m1016hPa49%
28-May-2024 03:00Broken Clouds31°C13 mph, E84%10000m1012hPa38%
28-May-2024 06:00Overcast Clouds32°C11 mph, SE93%10000m1011hPa35%
28-May-2024 09:00Overcast Clouds28°C11 mph, E100%10000m1013hPa46%
28-May-2024 12:00Overcast Clouds24°C13 mph, E100%10000m1015hPa57%
28-May-2024 15:00Overcast Clouds23°C11 mph, E100%10000m1015hPa61%
28-May-2024 18:00Broken Clouds20°C9 mph, SE59%10000m1014hPa75%